createdAt,value
2023-03-26T08:52:01.097Z,8.82
2023-03-26T08:57:34.130Z,8.64
2023-03-26T09:03:20.230Z,8.49
2023-03-26T09:09:01.130Z,8.40
2023-03-26T09:14:30.788Z,8.44
2023-03-26T09:20:14.662Z,8.50
2023-03-26T09:26:15.509Z,8.61
2023-03-26T09:31:58.226Z,8.73
2023-03-26T09:37:26.944Z,8.94
2023-03-26T09:42:38.802Z,9.09
2023-03-26T09:48:25.210Z,9.21
2023-03-26T09:54:02.026Z,9.40
2023-03-26T09:59:23.819Z,9.58
2023-03-26T10:05:06.314Z,9.65
2023-03-26T10:10:22.048Z,9.48
2023-03-26T10:15:37.656Z,9.26
2023-03-26T10:20:58.800Z,9.06
2023-03-26T10:26:21.881Z,9.11
2023-03-26T10:31:41.887Z,9.50
2023-03-26T10:36:56.524Z,10.03
2023-03-26T10:42:16.957Z,10.45
2023-03-26T10:47:43.335Z,10.65
2023-03-26T10:52:56.411Z,10.81
2023-03-26T10:58:12.912Z,11.06
2023-03-26T11:03:44.532Z,11.08
2023-03-26T11:08:59.173Z,10.99
2023-03-26T11:14:18.986Z,11.08
2023-03-26T11:19:42.492Z,11.27
2023-03-26T11:25:23.691Z,11.36
2023-03-26T11:30:41.590Z,11.43
2023-03-26T11:35:52.182Z,11.50
2023-03-26T11:41:01.531Z,11.60
2023-03-26T11:46:29.114Z,11.67
2023-03-26T11:51:37.969Z,11.77
2023-03-26T11:57:05.829Z,11.68
2023-03-26T12:02:29.438Z,11.52
2023-03-26T12:07:37.900Z,11.19
2023-03-26T12:12:43.700Z,10.91
2023-03-26T12:17:56.622Z,10.71
2023-03-26T12:23:06.670Z,10.67
2023-03-26T12:28:21.558Z,10.60
2023-03-26T12:33:34.400Z,10.48
2023-03-26T12:38:42.670Z,10.55
2023-03-26T12:44:52.752Z,10.66
2023-03-26T12:49:21.694Z,10.77
2023-03-26T12:54:44.903Z,10.94
2023-03-26T13:00:13.452Z,11.05
2023-03-26T13:05:40.337Z,11.06
2023-03-26T13:11:07.182Z,11.12
2023-03-26T13:16:23.409Z,11.13
2023-03-26T13:21:42.607Z,11.01
2023-03-26T13:27:04.839Z,10.91
2023-03-26T13:32:24.334Z,10.89
2023-03-26T13:37:40.015Z,10.87
2023-03-26T13:42:58.799Z,10.85
2023-03-26T13:48:09.231Z,10.87
2023-03-26T13:53:22.688Z,10.87
2023-03-26T13:58:39.590Z,10.87
2023-03-26T14:03:56.498Z,10.89
2023-03-26T14:09:09.063Z,10.97
2023-03-26T14:14:25.642Z,10.97
2023-03-26T14:20:06.691Z,11.00
2023-03-26T14:25:26.416Z,11.00
2023-03-26T14:31:04.203Z,11.02
2023-03-26T14:36:19.521Z,11.02
2023-03-26T14:41:45.213Z,11.01
2023-03-26T14:47:10.716Z,10.99
2023-03-26T14:52:32.651Z,10.95
2023-03-26T14:58:04.080Z,10.91
2023-03-26T15:03:49.155Z,10.86
2023-03-26T15:09:46.749Z,10.80
2023-03-26T15:15:32.110Z,10.66
2023-03-26T15:21:23.664Z,10.61
2023-03-26T15:27:03.876Z,10.55
2023-03-26T15:32:49.549Z,10.41
2023-03-26T15:38:28.902Z,10.23
2023-03-26T15:44:23.048Z,10.11
2023-03-26T15:49:43.141Z,10.08
2023-03-26T15:55:01.494Z,10.09
2023-03-26T16:05:56.948Z,10.05
2023-03-26T16:11:08.344Z,9.92
2023-03-26T16:16:46.774Z,9.80
2023-03-26T16:22:05.980Z,9.71
2023-03-26T16:27:35.400Z,9.63
2023-03-26T16:32:49.261Z,9.59
2023-03-26T16:38:11.647Z,9.58
2023-03-26T16:43:57.686Z,9.57
2023-03-26T16:49:16.873Z,9.50
2023-03-26T16:54:30.501Z,9.40
2023-03-26T17:00:06.187Z,9.27
2023-03-26T17:05:21.685Z,9.11
2023-03-26T17:10:36.905Z,8.94
2023-03-26T17:15:53.627Z,8.76
2023-03-26T17:21:04.875Z,8.56
2023-03-26T17:26:23.230Z,8.38
2023-03-26T17:31:47.781Z,8.18
2023-03-26T17:37:02.042Z,8.03
2023-03-26T17:42:26.278Z,7.88
2023-03-26T17:47:40.859Z,7.72
2023-03-26T17:53:00.282Z,7.56
2023-03-26T17:58:07.785Z,7.36
2023-03-26T18:03:23.002Z,7.12
2023-03-26T18:09:04.951Z,6.84
2023-03-26T18:14:27.966Z,6.59
2023-03-26T18:19:56.909Z,6.34
2023-03-26T18:25:07.434Z,6.17
2023-03-26T18:30:23.992Z,6.02
2023-03-26T18:35:44.170Z,5.91
2023-03-26T18:40:56.118Z,5.82
2023-03-26T18:46:04.701Z,5.67
2023-03-26T18:51:13.461Z,5.46
2023-03-26T18:56:33.837Z,5.23
2023-03-26T19:01:47.318Z,5.08
2023-03-26T19:06:55.318Z,5.05
2023-03-26T19:12:09.241Z,5.11
2023-03-26T19:17:16.661Z,5.19
2023-03-26T19:22:26.106Z,5.27
2023-03-26T19:27:33.488Z,5.31
2023-03-26T19:32:40.675Z,5.32
2023-03-26T19:37:55.535Z,5.30
2023-03-26T19:43:04.397Z,5.27
2023-03-26T19:48:16.823Z,5.28
2023-03-26T19:53:32.657Z,5.28
2023-03-26T19:58:40.113Z,5.25
2023-03-26T20:03:49.248Z,5.16
2023-03-26T20:08:58.129Z,5.07
2023-03-26T20:14:08.600Z,4.95
2023-03-26T20:19:16.854Z,4.87
2023-03-26T20:24:25.548Z,4.83
2023-03-26T20:29:33.168Z,4.77
2023-03-26T20:34:40.205Z,4.74
2023-03-26T20:39:47.363Z,4.63
2023-03-26T20:44:54.414Z,4.44
2023-03-26T20:50:02.142Z,4.24
2023-03-26T20:55:11.533Z,4.02
2023-03-26T21:00:22.813Z,3.82
2023-03-26T21:05:30.816Z,3.61
2023-03-26T21:10:36.709Z,3.46
2023-03-26T21:15:45.126Z,3.40
2023-03-26T21:21:14.079Z,3.37
2023-03-26T21:26:41.813Z,3.33
2023-03-26T21:31:51.561Z,3.22
2023-03-26T21:37:01.080Z,3.05
2023-03-26T21:42:09.879Z,2.85
2023-03-26T21:47:17.777Z,2.60
2023-03-26T21:52:23.988Z,2.34
2023-03-26T21:57:51.621Z,2.11
2023-03-26T22:03:08.912Z,1.89
2023-03-26T22:08:25.971Z,1.67
2023-03-26T22:13:35.962Z,1.47
2023-03-26T22:18:43.792Z,1.40
2023-03-26T22:23:52.867Z,1.34
2023-03-26T22:29:00.375Z,1.25
2023-03-26T22:34:07.917Z,1.15
2023-03-26T22:39:15.066Z,1.05
2023-03-26T22:44:22.103Z,0.91
2023-03-26T22:49:30.464Z,0.77
2023-03-26T22:54:38.078Z,0.62
2023-03-26T22:59:45.306Z,0.53
2023-03-26T23:04:52.872Z,0.48
2023-03-26T23:09:59.984Z,0.47
2023-03-26T23:15:09.736Z,0.44
2023-03-26T23:20:17.091Z,0.41
2023-03-26T23:25:24.184Z,0.35
2023-03-26T23:30:31.264Z,0.23
2023-03-26T23:35:38.306Z,0.09
2023-03-26T23:40:57.184Z,-0.06
2023-03-26T23:46:05.509Z,-0.20
2023-03-26T23:51:12.605Z,-0.30
2023-03-26T23:56:20.318Z,-0.30
